Pixape — EA3796 — position and weather

sailwx.info

Track history (hours):
 
Tides and Currents Weather Stations Pressure Air Temp Water Temp Dewpoint Dewpoint Depression Visibility Wind Speed Wind Dir Waves Ship Positions

Pixape

Last reported at 2018-May-21 07:06 UTC. Time now 2018-Jun-21 17:33 UTC.
Position N 28°19' W 016°10'.
Warning: this ship's position is 31 days out of date.

MMSI: 224024140.

Date/timePositionNaut miles runAvg speedWind from/ knotsBaromVisibWave heightAir tempDewpointWater temp
2018-May-21 07:06N 28°19' W 016°10'1 7.2
2018-May-21 07:00N 28°19' W 016°09'4 7.3
2018-May-21 06:30N 28°23' W 016°10'4 7.1
2018-May-21 06:00N 28°26' W 016°10'3 6.7
2018-May-21 05:30N 28°29' W 016°12'1 1.3
2018-May-21 05:00N 28°30' W 016°12'0 0.0
2018-May-21 04:29N 28°30' W 016°12'0 0.0
2018-May-21 04:00N 28°30' W 016°12'0 0.0
2018-May-21 03:30N 28°30' W 016°12'0 0.0
2018-May-21 03:00N 28°30' W 016°12'0 0.0
2018-May-21 02:30N 28°30' W 016°12'0 0.0
2018-May-21 02:00N 28°30' W 016°12'0 0.0
2018-May-21 01:30N 28°30' W 016°12'0 0.0
2018-May-21 01:00N 28°30' W 016°12'0 0.0
2018-May-21 00:30N 28°30' W 016°12'0 0.0
2018-May-21 00:00N 28°30' W 016°12'0 0.0
2018-May-20 23:30N 28°30' W 016°12'0 0.0
2018-May-20 23:00N 28°30' W 016°12'0 0.0
2018-May-20 22:30N 28°30' W 016°12'0 0.0
2018-May-20 22:00N 28°30' W 016°12'0 0.0
2018-May-20 21:30N 28°30' W 016°12'0 0.0
2018-May-20 21:00N 28°30' W 016°12'0 0.0
2018-May-20 20:30N 28°30' W 016°12'0 0.0
2018-May-20 20:00N 28°30' W 016°12'0 0.0
2018-May-20 19:30N 28°30' W 016°12'0 0.0
2018-May-20 18:58N 28°30' W 016°12'2 3.9
2018-May-20 18:30N 28°30' W 016°10'4 6.9
2018-May-20 17:57N 28°33' W 016°07'  
Track history (hours):
 
Tides and Currents Weather Stations Pressure Air Temp Water Temp Dewpoint Dewpoint Depression Visibility Wind Speed Wind Dir Waves Ship Positions

Pixape

Last reported at 2018-May-21 07:06 UTC. Time now 2018-Jun-21 17:33 UTC.
Position N 28°19' W 016°10'.
Warning: this ship's position is 31 days out of date.

MMSI: 224024140.

Date/timePositionNaut miles runAvg speedWind from/ knotsBaromVisibWave heightAir tempDewpointWater temp
2018-May-21 07:06N 28°19' W 016°10'1 7.2
2018-May-21 07:00N 28°19' W 016°09'4 7.3
2018-May-21 06:30N 28°23' W 016°10'4 7.1
2018-May-21 06:00N 28°26' W 016°10'3 6.7
2018-May-21 05:30N 28°29' W 016°12'1 1.3
2018-May-21 05:00N 28°30' W 016°12'0 0.0
2018-May-21 04:29N 28°30' W 016°12'0 0.0
2018-May-21 04:00N 28°30' W 016°12'0 0.0
2018-May-21 03:30N 28°30' W 016°12'0 0.0
2018-May-21 03:00N 28°30' W 016°12'0 0.0
2018-May-21 02:30N 28°30' W 016°12'0 0.0
2018-May-21 02:00N 28°30' W 016°12'0 0.0
2018-May-21 01:30N 28°30' W 016°12'0 0.0
2018-May-21 01:00N 28°30' W 016°12'0 0.0
2018-May-21 00:30N 28°30' W 016°12'0 0.0
2018-May-21 00:00N 28°30' W 016°12'0 0.0
2018-May-20 23:30N 28°30' W 016°12'0 0.0
2018-May-20 23:00N 28°30' W 016°12'0 0.0
2018-May-20 22:30N 28°30' W 016°12'0 0.0
2018-May-20 22:00N 28°30' W 016°12'0 0.0
2018-May-20 21:30N 28°30' W 016°12'0 0.0
2018-May-20 21:00N 28°30' W 016°12'0 0.0
2018-May-20 20:30N 28°30' W 016°12'0 0.0
2018-May-20 20:00N 28°30' W 016°12'0 0.0
2018-May-20 19:30N 28°30' W 016°12'0 0.0
2018-May-20 18:58N 28°30' W 016°12'2 3.9
2018-May-20 18:30N 28°30' W 016°10'4 6.9
2018-May-20 17:57N 28°33' W 016°07'  

Dump ship's entire track history